Nelsonville, Texas
Current Conditions -  °F | °C
As of 4:35 PM on Saturday 25 Oct 2014 (Local Time) from K11R Reporting Station
Clear Clear  
Wind Chill: 87°   Ceiling: Unl
Heat Index: 87°   Visibility: 10mi
Dew Point: 59°   Wind: 3mph
Humidity: 39%   Direction: 20°NNE
Pressure: 30.1"   Gusts: NA
Location:  29.9944°N, 96.2595°W
Report Text: K11R 252135Z AUTO 02003KT 10SM CLR 31/15 A3010 RMK AO2 T03060150
Loading
Personal Weather Stations






























Interactive Weather Map
Tropical Storm Tracking
New forecast layout! Learn more

10-Day Weather Forecast

Advertisements
Track Severe Weather on mobile